sensor_id;sensor_type;location;lat;lon;timestamp;pressure;altitude;pressure_sealevel;temperature
67822;BMP180;54434;50.096;20.082;2023-04-06T00:01:11;99225.40;;;-1.44
67822;BMP180;54434;50.096;20.082;2023-04-06T00:03:48;99225.80;;;-1.50
67822;BMP180;54434;50.096;20.082;2023-04-06T00:06:25;99226.00;;;-1.50
67822;BMP180;54434;50.096;20.082;2023-04-06T00:09:02;99227.00;;;-1.60
67822;BMP180;54434;50.096;20.082;2023-04-06T00:11:39;99223.00;;;-1.60
67822;BMP180;54434;50.096;20.082;2023-04-06T00:14:17;99225.20;;;-1.66
67822;BMP180;54434;50.096;20.082;2023-04-06T00:16:54;99220.60;;;-1.70
67822;BMP180;54434;50.096;20.082;2023-04-06T00:19:31;99216.60;;;-1.70
67822;BMP180;54434;50.096;20.082;2023-04-06T00:22:07;99215.40;;;-1.80
67822;BMP180;54434;50.096;20.082;2023-04-06T00:24:44;99213.40;;;-1.80
67822;BMP180;54434;50.096;20.082;2023-04-06T00:27:21;99215.60;;;-1.80
67822;BMP180;54434;50.096;20.082;2023-04-06T00:29:57;99208.60;;;-1.86
67822;BMP180;54434;50.096;20.082;2023-04-06T00:32:35;99207.00;;;-1.90
67822;BMP180;54434;50.096;20.082;2023-04-06T00:35:12;99211.20;;;-1.90
67822;BMP180;54434;50.096;20.082;2023-04-06T00:37:50;99209.00;;;-1.90
67822;BMP180;54434;50.096;20.082;2023-04-06T00:40:27;99210.80;;;-1.90
67822;BMP180;54434;50.096;20.082;2023-04-06T00:43:05;99210.20;;;-1.92
67822;BMP180;54434;50.096;20.082;2023-04-06T00:45:43;99203.60;;;-2.00
67822;BMP180;54434;50.096;20.082;2023-04-06T00:48:20;99205.60;;;-2.00
67822;BMP180;54434;50.096;20.082;2023-04-06T00:50:57;99199.80;;;-2.00
67822;BMP180;54434;50.096;20.082;2023-04-06T00:53:34;99201.60;;;-2.00
67822;BMP180;54434;50.096;20.082;2023-04-06T00:56:12;99196.40;;;-2.10
67822;BMP180;54434;50.096;20.082;2023-04-06T00:58:57;99191.80;;;-2.10
67822;BMP180;54434;50.096;20.082;2023-04-06T01:01:34;99194.40;;;-2.10
67822;BMP180;54434;50.096;20.082;2023-04-06T01:04:15;99189.80;;;-2.20
67822;BMP180;54434;50.096;20.082;2023-04-06T01:06:52;99190.40;;;-2.20
67822;BMP180;54434;50.096;20.082;2023-04-06T01:09:34;99187.40;;;-2.20
67822;BMP180;54434;50.096;20.082;2023-04-06T01:12:13;99184.60;;;-2.26
67822;BMP180;54434;50.096;20.082;2023-04-06T01:14:50;99185.60;;;-2.30
67822;BMP180;54434;50.096;20.082;2023-04-06T01:17:27;99185.00;;;-2.30
67822;BMP180;54434;50.096;20.082;2023-04-06T01:20:08;99190.40;;;-2.30
67822;BMP180;54434;50.096;20.082;2023-04-06T01:22:45;99181.60;;;-2.30
67822;BMP180;54434;50.096;20.082;2023-04-06T01:25:23;99185.60;;;-2.30
67822;BMP180;54434;50.096;20.082;2023-04-06T01:28:14;99181.80;;;-2.30
67822;BMP180;54434;50.096;20.082;2023-04-06T01:31:02;99182.00;;;-2.30
67822;BMP180;54434;50.096;20.082;2023-04-06T01:33:52;99175.60;;;-2.30
67822;BMP180;54434;50.096;20.082;2023-04-06T01:36:31;99180.80;;;-2.32
67822;BMP180;54434;50.096;20.082;2023-04-06T01:39:26;99180.60;;;-2.30
67822;BMP180;54434;50.096;20.082;2023-04-06T01:42:04;99175.20;;;-2.34
67822;BMP180;54434;50.096;20.082;2023-04-06T01:44:41;99166.80;;;-2.32
67822;BMP180;54434;50.096;20.082;2023-04-06T01:47:21;99165.40;;;-2.40
67822;BMP180;54434;50.096;20.082;2023-04-06T01:49:58;99169.60;;;-2.40
67822;BMP180;54434;50.096;20.082;2023-04-06T01:52:35;99167.40;;;-2.40
67822;BMP180;54434;50.096;20.082;2023-04-06T01:55:13;99172.40;;;-2.40
67822;BMP180;54434;50.096;20.082;2023-04-06T01:58:12;99168.20;;;-2.40
67822;BMP180;54434;50.096;20.082;2023-04-06T02:00:49;99170.80;;;-2.40
67822;BMP180;54434;50.096;20.082;2023-04-06T02:03:26;99169.80;;;-2.40
67822;BMP180;54434;50.096;20.082;2023-04-06T02:06:09;99163.40;;;-2.40
67822;BMP180;54434;50.096;20.082;2023-04-06T02:08:47;99165.40;;;-2.40
67822;BMP180;54434;50.096;20.082;2023-04-06T02:11:24;99161.60;;;-2.40
67822;BMP180;54434;50.096;20.082;2023-04-06T02:14:02;99159.00;;;-2.40
67822;BMP180;54434;50.096;20.082;2023-04-06T02:16:40;99156.00;;;-2.48
67822;BMP180;54434;50.096;20.082;2023-04-06T02:19:17;99160.00;;;-2.50
67822;BMP180;54434;50.096;20.082;2023-04-06T02:21:54;99155.20;;;-2.50
67822;BMP180;54434;50.096;20.082;2023-04-06T02:24:31;99157.00;;;-2.50
67822;BMP180;54434;50.096;20.082;2023-04-06T02:27:08;99153.20;;;-2.50
67822;BMP180;54434;50.096;20.082;2023-04-06T02:29:45;99155.40;;;-2.50
67822;BMP180;54434;50.096;20.082;2023-04-06T02:32:23;99156.20;;;-2.50
67822;BMP180;54434;50.096;20.082;2023-04-06T02:35:01;99157.00;;;-2.50
67822;BMP180;54434;50.096;20.082;2023-04-06T02:37:38;99159.40;;;-2.50
67822;BMP180;54434;50.096;20.082;2023-04-06T02:40:17;99162.00;;;-2.50
67822;BMP180;54434;50.096;20.082;2023-04-06T02:42:53;99160.40;;;-2.50
67822;BMP180;54434;50.096;20.082;2023-04-06T02:45:34;99151.80;;;-2.50
67822;BMP180;54434;50.096;20.082;2023-04-06T02:48:12;99153.20;;;-2.52
67822;BMP180;54434;50.096;20.082;2023-04-06T02:50:49;99158.00;;;-2.52
67822;BMP180;54434;50.096;20.082;2023-04-06T02:53:25;99161.40;;;-2.56
67822;BMP180;54434;50.096;20.082;2023-04-06T02:56:03;99161.20;;;-2.56
67822;BMP180;54434;50.096;20.082;2023-04-06T02:58:53;99162.20;;;-2.60
67822;BMP180;54434;50.096;20.082;2023-04-06T03:01:31;99163.60;;;-2.60
67822;BMP180;54434;50.096;20.082;2023-04-06T03:04:10;99159.20;;;-2.60
67822;BMP180;54434;50.096;20.082;2023-04-06T03:06:47;99163.20;;;-2.60
67822;BMP180;54434;50.096;20.082;2023-04-06T03:09:31;99162.40;;;-2.60
67822;BMP180;54434;50.096;20.082;2023-04-06T03:12:09;99161.60;;;-2.60
67822;BMP180;54434;50.096;20.082;2023-04-06T03:15:31;99155.60;;;-2.60
67822;BMP180;54434;50.096;20.082;2023-04-06T03:18:20;99157.20;;;-2.60
67822;BMP180;54434;50.096;20.082;2023-04-06T03:20:58;99157.00;;;-2.60
67822;BMP180;54434;50.096;20.082;2023-04-06T03:23:46;99160.80;;;-2.60
67822;BMP180;54434;50.096;20.082;2023-04-06T03:26:25;99162.40;;;-2.60
67822;BMP180;54434;50.096;20.082;2023-04-06T03:29:02;99165.60;;;-2.60
67822;BMP180;54434;50.096;20.082;2023-04-06T03:31:39;99160.80;;;-2.60
67822;BMP180;54434;50.096;20.082;2023-04-06T03:34:50;99160.20;;;-2.60
67822;BMP180;54434;50.096;20.082;2023-04-06T03:37:27;99164.80;;;-2.60
67822;BMP180;54434;50.096;20.082;2023-04-06T03:40:08;99165.60;;;-2.60
67822;BMP180;54434;50.096;20.082;2023-04-06T03:42:45;99162.60;;;-2.60
67822;BMP180;54434;50.096;20.082;2023-04-06T03:45:22;99168.80;;;-2.60
67822;BMP180;54434;50.096;20.082;2023-04-06T03:47:59;99161.80;;;-2.60
67822;BMP180;54434;50.096;20.082;2023-04-06T03:50:37;99165.60;;;-2.54
67822;BMP180;54434;50.096;20.082;2023-04-06T03:53:14;99162.20;;;-2.56
67822;BMP180;54434;50.096;20.082;2023-04-06T03:55:50;99164.20;;;-2.50
67822;BMP180;54434;50.096;20.082;2023-04-06T03:58:28;99164.60;;;-2.50
67822;BMP180;54434;50.096;20.082;2023-04-06T04:01:53;99169.80;;;-2.50
67822;BMP180;54434;50.096;20.082;2023-04-06T04:04:32;99166.40;;;-2.50
67822;BMP180;54434;50.096;20.082;2023-04-06T04:07:08;99163.80;;;-2.50
67822;BMP180;54434;50.096;20.082;2023-04-06T04:09:45;99166.60;;;-2.50
67822;BMP180;54434;50.096;20.082;2023-04-06T04:12:22;99163.00;;;-2.50
67822;BMP180;54434;50.096;20.082;2023-04-06T04:14:59;99162.00;;;-2.50
67822;BMP180;54434;50.096;20.082;2023-04-06T04:17:36;99164.80;;;-2.50
67822;BMP180;54434;50.096;20.082;2023-04-06T04:20:14;99168.20;;;-2.50
67822;BMP180;54434;50.096;20.082;2023-04-06T04:22:51;99165.60;;;-2.50
67822;BMP180;54434;50.096;20.082;2023-04-06T04:25:28;99163.40;;;-2.50
67822;BMP180;54434;50.096;20.082;2023-04-06T04:28:05;99163.60;;;-2.40
67822;BMP180;54434;50.096;20.082;2023-04-06T04:30:42;99161.20;;;-2.40
67822;BMP180;54434;50.096;20.082;2023-04-06T04:33:19;99167.40;;;-2.30
67822;BMP180;54434;50.096;20.082;2023-04-06T04:35:56;99156.20;;;-2.30
67822;BMP180;54434;50.096;20.082;2023-04-06T04:38:34;99158.40;;;-2.20
67822;BMP180;54434;50.096;20.082;2023-04-06T04:41:11;99150.40;;;-2.10
67822;BMP180;54434;50.096;20.082;2023-04-06T04:43:49;99154.20;;;-2.02
67822;BMP180;54434;50.096;20.082;2023-04-06T04:46:29;99156.40;;;-2.00
67822;BMP180;54434;50.096;20.082;2023-04-06T04:49:06;99160.00;;;-1.90
67822;BMP180;54434;50.096;20.082;2023-04-06T04:51:44;99157.00;;;-1.80
67822;BMP180;54434;50.096;20.082;2023-04-06T04:54:27;99156.80;;;-1.70
67822;BMP180;54434;50.096;20.082;2023-04-06T04:57:05;99155.40;;;-1.60
67822;BMP180;54434;50.096;20.082;2023-04-06T04:59:47;99157.40;;;-1.50
67822;BMP180;54434;50.096;20.082;2023-04-06T05:02:26;99157.20;;;-1.50
67822;BMP180;54434;50.096;20.082;2023-04-06T05:05:24;99159.20;;;-1.36
67822;BMP180;54434;50.096;20.082;2023-04-06T05:08:01;99158.40;;;-1.30
67822;BMP180;54434;50.096;20.082;2023-04-06T05:10:49;99153.00;;;-1.20
67822;BMP180;54434;50.096;20.082;2023-04-06T05:13:26;99150.40;;;-1.10
67822;BMP180;54434;50.096;20.082;2023-04-06T05:16:03;99152.40;;;-0.98
67822;BMP180;54434;50.096;20.082;2023-04-06T05:18:40;99156.00;;;-0.84
67822;BMP180;54434;50.096;20.082;2023-04-06T05:21:17;99154.00;;;-0.80
67822;BMP180;54434;50.096;20.082;2023-04-06T05:24:44;99152.00;;;-0.68
67822;BMP180;54434;50.096;20.082;2023-04-06T05:27:21;99152.00;;;-0.60
67822;BMP180;54434;50.096;20.082;2023-04-06T05:29:58;99152.80;;;-0.50
67822;BMP180;54434;50.096;20.082;2023-04-06T05:32:36;99157.80;;;-0.40
67822;BMP180;54434;50.096;20.082;2023-04-06T05:35:14;99151.40;;;-0.30
67822;BMP180;54434;50.096;20.082;2023-04-06T05:37:53;99154.80;;;-0.20
67822;BMP180;54434;50.096;20.082;2023-04-06T05:40:32;99150.60;;;-0.10
67822;BMP180;54434;50.096;20.082;2023-04-06T05:43:10;99147.20;;;0.00
67822;BMP180;54434;50.096;20.082;2023-04-06T05:45:50;99145.40;;;0.10
67822;BMP180;54434;50.096;20.082;2023-04-06T05:48:27;99146.00;;;0.10
67822;BMP180;54434;50.096;20.082;2023-04-06T05:51:04;99144.40;;;0.20
67822;BMP180;54434;50.096;20.082;2023-04-06T05:53:49;99143.60;;;0.30
67822;BMP180;54434;50.096;20.082;2023-04-06T05:56:26;99145.40;;;0.40
67822;BMP180;54434;50.096;20.082;2023-04-06T05:59:03;99149.20;;;0.50
67822;BMP180;54434;50.096;20.082;2023-04-06T06:01:40;99153.00;;;0.60
67822;BMP180;54434;50.096;20.082;2023-04-06T06:04:17;99148.80;;;0.70
67822;BMP180;54434;50.096;20.082;2023-04-06T06:06:55;99150.40;;;0.78
67822;BMP180;54434;50.096;20.082;2023-04-06T06:09:38;99147.20;;;0.80
67822;BMP180;54434;50.096;20.082;2023-04-06T06:12:29;99148.40;;;0.84
67822;BMP180;54434;50.096;20.082;2023-04-06T06:15:08;99148.20;;;0.90
67822;BMP180;54434;50.096;20.082;2023-04-06T06:17:48;99144.40;;;0.96
67822;BMP180;54434;50.096;20.082;2023-04-06T06:20:26;99146.80;;;1.00
67822;BMP180;54434;50.096;20.082;2023-04-06T06:23:04;99149.60;;;1.04
67822;BMP180;54434;50.096;20.082;2023-04-06T06:25:41;99145.60;;;1.10
67822;BMP180;54434;50.096;20.082;2023-04-06T06:28:18;99146.80;;;1.10
67822;BMP180;54434;50.096;20.082;2023-04-06T06:30:55;99146.40;;;1.10
67822;BMP180;54434;50.096;20.082;2023-04-06T06:33:32;99146.80;;;1.10
67822;BMP180;54434;50.096;20.082;2023-04-06T06:36:09;99148.20;;;1.10
67822;BMP180;54434;50.096;20.082;2023-04-06T06:38:47;99146.80;;;1.18
67822;BMP180;54434;50.096;20.082;2023-04-06T06:41:25;99149.60;;;1.20
67822;BMP180;54434;50.096;20.082;2023-04-06T06:44:02;99144.20;;;1.20
67822;BMP180;54434;50.096;20.082;2023-04-06T06:46:39;99145.80;;;1.20
67822;BMP180;54434;50.096;20.082;2023-04-06T06:49:17;99145.60;;;1.20
67822;BMP180;54434;50.096;20.082;2023-04-06T06:51:54;99150.80;;;1.20
67822;BMP180;54434;50.096;20.082;2023-04-06T06:54:31;99144.80;;;1.30
67822;BMP180;54434;50.096;20.082;2023-04-06T06:57:08;99151.20;;;1.30
67822;BMP180;54434;50.096;20.082;2023-04-06T06:59:45;99149.20;;;1.40
67822;BMP180;54434;50.096;20.082;2023-04-06T07:02:22;99147.40;;;1.46
67822;BMP180;54434;50.096;20.082;2023-04-06T07:04:59;99146.60;;;1.50
67822;BMP180;54434;50.096;20.082;2023-04-06T07:07:42;99144.80;;;1.50
67822;BMP180;54434;50.096;20.082;2023-04-06T07:10:19;99143.60;;;1.56
67822;BMP180;54434;50.096;20.082;2023-04-06T07:12:56;99147.40;;;1.60
67822;BMP180;54434;50.096;20.082;2023-04-06T07:15:33;99146.00;;;1.70
67822;BMP180;54434;50.096;20.082;2023-04-06T07:18:10;99145.20;;;1.80
67822;BMP180;54434;50.096;20.082;2023-04-06T07:20:47;99149.60;;;1.90
67822;BMP180;54434;50.096;20.082;2023-04-06T07:23:24;99145.60;;;2.00
67822;BMP180;54434;50.096;20.082;2023-04-06T07:26:01;99151.60;;;2.00
67822;BMP180;54434;50.096;20.082;2023-04-06T07:28:38;99148.80;;;2.10
67822;BMP180;54434;50.096;20.082;2023-04-06T07:31:15;99152.40;;;2.10
67822;BMP180;54434;50.096;20.082;2023-04-06T07:33:52;99146.80;;;2.08
67822;BMP180;54434;50.096;20.082;2023-04-06T07:36:29;99147.60;;;2.10
67822;BMP180;54434;50.096;20.082;2023-04-06T07:39:06;99148.40;;;2.10
67822;BMP180;54434;50.096;20.082;2023-04-06T07:41:43;99151.80;;;2.20
67822;BMP180;54434;50.096;20.082;2023-04-06T07:44:20;99151.20;;;2.20
67822;BMP180;54434;50.096;20.082;2023-04-06T07:46:58;99147.80;;;2.40
67822;BMP180;54434;50.096;20.082;2023-04-06T07:49:35;99141.00;;;2.52
67822;BMP180;54434;50.096;20.082;2023-04-06T07:52:12;99140.40;;;2.80
67822;BMP180;54434;50.096;20.082;2023-04-06T07:54:49;99139.00;;;3.00
67822;BMP180;54434;50.096;20.082;2023-04-06T07:57:26;99133.80;;;3.10
67822;BMP180;54434;50.096;20.082;2023-04-06T08:00:04;99137.60;;;3.20
67822;BMP180;54434;50.096;20.082;2023-04-06T08:02:46;99132.40;;;3.30
67822;BMP180;54434;50.096;20.082;2023-04-06T08:05:23;99135.80;;;3.40
67822;BMP180;54434;50.096;20.082;2023-04-06T08:08:00;99128.60;;;3.40
67822;BMP180;54434;50.096;20.082;2023-04-06T08:10:37;99123.80;;;3.60
67822;BMP180;54434;50.096;20.082;2023-04-06T08:13:14;99124.80;;;3.80
67822;BMP180;54434;50.096;20.082;2023-04-06T08:15:51;99125.20;;;4.00
67822;BMP180;54434;50.096;20.082;2023-04-06T08:18:29;99121.00;;;4.10
67822;BMP180;54434;50.096;20.082;2023-04-06T08:21:06;99122.40;;;4.38
67822;BMP180;54434;50.096;20.082;2023-04-06T08:23:43;99118.20;;;4.50
67822;BMP180;54434;50.096;20.082;2023-04-06T08:26:22;99116.60;;;4.70
67822;BMP180;54434;50.096;20.082;2023-04-06T08:28:59;99120.20;;;4.90
67822;BMP180;54434;50.096;20.082;2023-04-06T08:31:36;99118.60;;;4.94
67822;BMP180;54434;50.096;20.082;2023-04-06T08:34:13;99116.00;;;5.00
67822;BMP180;54434;50.096;20.082;2023-04-06T08:36:50;99117.20;;;4.90
67822;BMP180;54434;50.096;20.082;2023-04-06T08:39:27;99115.00;;;5.00
67822;BMP180;54434;50.096;20.082;2023-04-06T08:42:13;99108.80;;;4.90
67822;BMP180;54434;50.096;20.082;2023-04-06T08:44:52;99113.40;;;4.80
67822;BMP180;54434;50.096;20.082;2023-04-06T08:47:30;99108.00;;;4.80
67822;BMP180;54434;50.096;20.082;2023-04-06T08:50:09;99104.60;;;4.80
67822;BMP180;54434;50.096;20.082;2023-04-06T08:52:48;99104.40;;;4.64
67822;BMP180;54434;50.096;20.082;2023-04-06T08:55:25;99099.20;;;4.60
67822;BMP180;54434;50.096;20.082;2023-04-06T08:58:03;99093.00;;;4.48
67822;BMP180;54434;50.096;20.082;2023-04-06T09:00:42;99095.20;;;4.30
67822;BMP180;54434;50.096;20.082;2023-04-06T09:03:21;99094.60;;;4.30
67822;BMP180;54434;50.096;20.082;2023-04-06T09:05:59;99094.40;;;4.20
67822;BMP180;54434;50.096;20.082;2023-04-06T09:08:40;99091.20;;;4.10
67822;BMP180;54434;50.096;20.082;2023-04-06T09:11:17;99093.80;;;4.00
67822;BMP180;54434;50.096;20.082;2023-04-06T09:13:56;99097.00;;;3.90
67822;BMP180;54434;50.096;20.082;2023-04-06T09:16:43;99093.00;;;3.80
67822;BMP180;54434;50.096;20.082;2023-04-06T09:19:21;99092.00;;;3.70
67822;BMP180;54434;50.096;20.082;2023-04-06T09:22:08;99093.00;;;3.60
67822;BMP180;54434;50.096;20.082;2023-04-06T09:24:50;99090.40;;;3.60
67822;BMP180;54434;50.096;20.082;2023-04-06T09:27:38;99093.80;;;3.50
67822;BMP180;54434;50.096;20.082;2023-04-06T09:30:17;99090.40;;;3.40
67822;BMP180;54434;50.096;20.082;2023-04-06T09:32:56;99092.60;;;3.30
67822;BMP180;54434;50.096;20.082;2023-04-06T09:35:33;99088.20;;;3.30
67822;BMP180;54434;50.096;20.082;2023-04-06T09:38:15;99088.00;;;3.20
67822;BMP180;54434;50.096;20.082;2023-04-06T09:40:56;99081.80;;;3.20
67822;BMP180;54434;50.096;20.082;2023-04-06T09:43:36;99076.60;;;3.10
67822;BMP180;54434;50.096;20.082;2023-04-06T09:46:13;99076.60;;;3.10
67822;BMP180;54434;50.096;20.082;2023-04-06T09:48:50;99075.00;;;3.20
67822;BMP180;54434;50.096;20.082;2023-04-06T09:51:31;99074.00;;;3.20
67822;BMP180;54434;50.096;20.082;2023-04-06T09:54:18;99070.00;;;3.10
67822;BMP180;54434;50.096;20.082;2023-04-06T09:57:07;99066.60;;;3.10
67822;BMP180;54434;50.096;20.082;2023-04-06T09:59:53;99070.20;;;3.10
67822;BMP180;54434;50.096;20.082;2023-04-06T10:02:44;99073.40;;;3.20
67822;BMP180;54434;50.096;20.082;2023-04-06T10:05:32;99069.00;;;3.30
67822;BMP180;54434;50.096;20.082;2023-04-06T10:08:13;99071.40;;;3.38
67822;BMP180;54434;50.096;20.082;2023-04-06T10:10:52;99081.00;;;3.40
67822;BMP180;54434;50.096;20.082;2023-04-06T10:13:29;99081.40;;;3.40
67822;BMP180;54434;50.096;20.082;2023-04-06T10:16:07;99069.80;;;3.38
67822;BMP180;54434;50.096;20.082;2023-04-06T10:18:50;99079.60;;;3.40
67822;BMP180;54434;50.096;20.082;2023-04-06T10:21:32;99074.80;;;3.30
67822;BMP180;54434;50.096;20.082;2023-04-06T10:24:14;99074.80;;;3.24
67822;BMP180;54434;50.096;20.082;2023-04-06T10:27:06;99069.40;;;3.20
67822;BMP180;54434;50.096;20.082;2023-04-06T10:29:49;99066.80;;;3.10
67822;BMP180;54434;50.096;20.082;2023-04-06T10:32:37;99065.20;;;3.10
67822;BMP180;54434;50.096;20.082;2023-04-06T10:35:18;99062.20;;;3.12
67822;BMP180;54434;50.096;20.082;2023-04-06T10:38:07;99059.60;;;3.20
67822;BMP180;54434;50.096;20.082;2023-04-06T10:40:45;99061.00;;;3.20
67822;BMP180;54434;50.096;20.082;2023-04-06T10:43:25;99056.00;;;3.10
67822;BMP180;54434;50.096;20.082;2023-04-06T10:46:06;99062.40;;;3.10
67822;BMP180;54434;50.096;20.082;2023-04-06T10:48:44;99059.00;;;3.10
67822;BMP180;54434;50.096;20.082;2023-04-06T10:51:27;99049.40;;;3.10
67822;BMP180;54434;50.096;20.082;2023-04-06T10:54:07;99047.80;;;3.10
67822;BMP180;54434;50.096;20.082;2023-04-06T10:56:45;99040.00;;;3.10
67822;BMP180;54434;50.096;20.082;2023-04-06T10:59:25;99045.00;;;3.10
67822;BMP180;54434;50.096;20.082;2023-04-06T11:02:01;99046.00;;;3.00
67822;BMP180;54434;50.096;20.082;2023-04-06T11:04:38;99037.40;;;3.00
67822;BMP180;54434;50.096;20.082;2023-04-06T11:07:26;99046.40;;;3.00
67822;BMP180;54434;50.096;20.082;2023-04-06T11:10:06;99041.80;;;2.90
67822;BMP180;54434;50.096;20.082;2023-04-06T11:12:56;99042.20;;;2.90
67822;BMP180;54434;50.096;20.082;2023-04-06T11:15:38;99036.00;;;2.90
67822;BMP180;54434;50.096;20.082;2023-04-06T11:18:20;99032.00;;;2.86
67822;BMP180;54434;50.096;20.082;2023-04-06T11:20:57;99033.20;;;2.80
67822;BMP180;54434;50.096;20.082;2023-04-06T11:23:34;99031.20;;;2.70
67822;BMP180;54434;50.096;20.082;2023-04-06T11:26:15;99028.20;;;2.70
67822;BMP180;54434;50.096;20.082;2023-04-06T11:28:53;99036.60;;;2.68
67822;BMP180;54434;50.096;20.082;2023-04-06T11:31:31;99031.00;;;2.60
67822;BMP180;54434;50.096;20.082;2023-04-06T11:34:18;99032.20;;;2.60
67822;BMP180;54434;50.096;20.082;2023-04-06T11:37:00;99033.40;;;2.60
67822;BMP180;54434;50.096;20.082;2023-04-06T11:39:49;99028.40;;;2.50
67822;BMP180;54434;50.096;20.082;2023-04-06T11:42:30;99024.80;;;2.50
67822;BMP180;54434;50.096;20.082;2023-04-06T11:45:16;99028.00;;;2.42
67822;BMP180;54434;50.096;20.082;2023-04-06T11:48:01;99024.80;;;2.50
67822;BMP180;54434;50.096;20.082;2023-04-06T11:50:40;99021.00;;;2.50
67822;BMP180;54434;50.096;20.082;2023-04-06T11:53:17;99018.00;;;2.50
67822;BMP180;54434;50.096;20.082;2023-04-06T11:55:54;99019.60;;;2.50
67822;BMP180;54434;50.096;20.082;2023-04-06T11:58:32;99020.20;;;2.50
67822;BMP180;54434;50.096;20.082;2023-04-06T12:01:09;99021.00;;;2.40
67822;BMP180;54434;50.096;20.082;2023-04-06T12:03:46;99017.40;;;2.30
67822;BMP180;54434;50.096;20.082;2023-04-06T12:06:24;99015.00;;;2.30
67822;BMP180;54434;50.096;20.082;2023-04-06T12:09:01;99012.80;;;2.28
67822;BMP180;54434;50.096;20.082;2023-04-06T12:11:38;99007.80;;;2.22
67822;BMP180;54434;50.096;20.082;2023-04-06T12:14:16;99005.60;;;2.22
67822;BMP180;54434;50.096;20.082;2023-04-06T12:16:53;99005.00;;;2.20
67822;BMP180;54434;50.096;20.082;2023-04-06T12:19:30;99005.00;;;2.20
67822;BMP180;54434;50.096;20.082;2023-04-06T12:22:07;99006.20;;;2.26
67822;BMP180;54434;50.096;20.082;2023-04-06T12:24:44;98998.40;;;2.20
67822;BMP180;54434;50.096;20.082;2023-04-06T12:27:21;99002.00;;;2.20
67822;BMP180;54434;50.096;20.082;2023-04-06T12:29:58;99000.80;;;2.20
67822;BMP180;54434;50.096;20.082;2023-04-06T12:32:35;98994.60;;;2.20
67822;BMP180;54434;50.096;20.082;2023-04-06T12:35:13;98996.20;;;2.10
67822;BMP180;54434;50.096;20.082;2023-04-06T12:37:51;98986.80;;;2.10
67822;BMP180;54434;50.096;20.082;2023-04-06T12:40:28;98985.40;;;2.10
67822;BMP180;54434;50.096;20.082;2023-04-06T12:43:05;98984.60;;;2.10
67822;BMP180;54434;50.096;20.082;2023-04-06T12:45:42;98982.60;;;2.10
67822;BMP180;54434;50.096;20.082;2023-04-06T12:48:19;98974.20;;;2.10
67822;BMP180;54434;50.096;20.082;2023-04-06T12:51:02;98975.60;;;2.10
67822;BMP180;54434;50.096;20.082;2023-04-06T12:53:40;98974.00;;;2.20
67822;BMP180;54434;50.096;20.082;2023-04-06T12:56:18;98973.40;;;2.20
67822;BMP180;54434;50.096;20.082;2023-04-06T12:58:56;98967.80;;;2.30
67822;BMP180;54434;50.096;20.082;2023-04-06T13:01:34;98968.60;;;2.30
67822;BMP180;54434;50.096;20.082;2023-04-06T13:04:11;98965.20;;;2.40
67822;BMP180;54434;50.096;20.082;2023-04-06T13:06:47;98964.80;;;2.40
67822;BMP180;54434;50.096;20.082;2023-04-06T13:09:24;98962.40;;;2.50
67822;BMP180;54434;50.096;20.082;2023-04-06T13:12:01;98949.20;;;2.50
67822;BMP180;54434;50.096;20.082;2023-04-06T13:14:38;98944.00;;;2.50
67822;BMP180;54434;50.096;20.082;2023-04-06T13:17:16;98947.60;;;2.50
67822;BMP180;54434;50.096;20.082;2023-04-06T13:19:53;98949.00;;;2.50
67822;BMP180;54434;50.096;20.082;2023-04-06T13:22:30;98952.20;;;2.50
67822;BMP180;54434;50.096;20.082;2023-04-06T13:25:08;98949.80;;;2.50
67822;BMP180;54434;50.096;20.082;2023-04-06T13:27:45;98945.00;;;2.50
67822;BMP180;54434;50.096;20.082;2023-04-06T13:30:24;98941.40;;;2.50
67822;BMP180;54434;50.096;20.082;2023-04-06T13:33:03;98936.60;;;2.50
67822;BMP180;54434;50.096;20.082;2023-04-06T13:35:45;98937.60;;;2.44
67822;BMP180;54434;50.096;20.082;2023-04-06T13:38:22;98941.40;;;2.40
67822;BMP180;54434;50.096;20.082;2023-04-06T13:40:59;98944.80;;;2.40
67822;BMP180;54434;50.096;20.082;2023-04-06T13:43:36;98943.00;;;2.30
67822;BMP180;54434;50.096;20.082;2023-04-06T13:46:13;98939.40;;;2.30
67822;BMP180;54434;50.096;20.082;2023-04-06T13:48:50;98939.80;;;2.30
67822;BMP180;54434;50.096;20.082;2023-04-06T13:51:27;98939.80;;;2.30
67822;BMP180;54434;50.096;20.082;2023-04-06T13:54:04;98939.00;;;2.30
67822;BMP180;54434;50.096;20.082;2023-04-06T13:56:41;98936.00;;;2.36
67822;BMP180;54434;50.096;20.082;2023-04-06T13:59:17;98940.60;;;2.38
67822;BMP180;54434;50.096;20.082;2023-04-06T14:01:54;98942.40;;;2.40
67822;BMP180;54434;50.096;20.082;2023-04-06T14:04:31;98943.40;;;2.40
67822;BMP180;54434;50.096;20.082;2023-04-06T14:07:08;98943.40;;;2.40
67822;BMP180;54434;50.096;20.082;2023-04-06T14:09:44;98945.40;;;2.40
67822;BMP180;54434;50.096;20.082;2023-04-06T14:12:21;98948.00;;;2.40
67822;BMP180;54434;50.096;20.082;2023-04-06T14:14:57;98947.40;;;2.40
67822;BMP180;54434;50.096;20.082;2023-04-06T14:17:34;98950.80;;;2.40
67822;BMP180;54434;50.096;20.082;2023-04-06T14:20:13;98949.00;;;2.30
67822;BMP180;54434;50.096;20.082;2023-04-06T14:22:50;98954.40;;;2.30
67822;BMP180;54434;50.096;20.082;2023-04-06T14:25:27;98956.60;;;2.40
67822;BMP180;54434;50.096;20.082;2023-04-06T14:28:06;98958.20;;;2.40
67822;BMP180;54434;50.096;20.082;2023-04-06T14:30:43;98959.20;;;2.30
67822;BMP180;54434;50.096;20.082;2023-04-06T14:33:19;98956.40;;;2.30
67822;BMP180;54434;50.096;20.082;2023-04-06T14:35:56;98952.20;;;2.20
67822;BMP180;54434;50.096;20.082;2023-04-06T14:38:32;98957.80;;;2.20
67822;BMP180;54434;50.096;20.082;2023-04-06T14:41:09;98960.40;;;2.18
67822;BMP180;54434;50.096;20.082;2023-04-06T14:43:50;98959.80;;;2.20
67822;BMP180;54434;50.096;20.082;2023-04-06T14:46:28;98955.20;;;2.20
67822;BMP180;54434;50.096;20.082;2023-04-06T14:49:04;98953.40;;;2.20
67822;BMP180;54434;50.096;20.082;2023-04-06T14:51:40;98957.60;;;2.20
67822;BMP180;54434;50.096;20.082;2023-04-06T14:54:17;98957.00;;;2.20
67822;BMP180;54434;50.096;20.082;2023-04-06T14:56:53;98962.60;;;2.10
67822;BMP180;54434;50.096;20.082;2023-04-06T14:59:30;98956.00;;;2.10
67822;BMP180;54434;50.096;20.082;2023-04-06T15:02:12;98953.00;;;2.10
67822;BMP180;54434;50.096;20.082;2023-04-06T15:04:50;98955.60;;;2.10
67822;BMP180;54434;50.096;20.082;2023-04-06T15:07:28;98951.60;;;2.10
67822;BMP180;54434;50.096;20.082;2023-04-06T15:10:07;98953.60;;;2.10
67822;BMP180;54434;50.096;20.082;2023-04-06T15:12:46;98950.40;;;2.10